sensor_id;sensor_type;location;lat;lon;timestamp;pressure;altitude;pressure_sealevel;temperature;humidity
49947;BME280;35839;48.662;13.300;2023-05-19T05:05:12;97835.44;;;11.66;83.56
49947;BME280;35839;48.662;13.300;2023-05-19T05:07:38;97833.38;;;11.59;83.70
49947;BME280;35839;48.662;13.300;2023-05-19T05:10:03;97832.38;;;11.70;84.78
49947;BME280;35839;48.662;13.300;2023-05-19T05:12:29;97823.16;;;11.66;84.41
49947;BME280;35839;48.662;13.300;2023-05-19T05:14:55;97823.09;;;11.76;85.07
49947;BME280;35839;48.662;13.300;2023-05-19T05:17:21;97829.75;;;11.70;85.90
49947;BME280;35839;48.662;13.300;2023-05-19T05:19:46;97827.06;;;11.90;86.26
49947;BME280;35839;48.662;13.300;2023-05-19T05:22:12;97829.53;;;11.81;87.21
49947;BME280;35839;48.662;13.300;2023-05-19T05:24:38;97829.75;;;11.98;88.14
49947;BME280;35839;48.662;13.300;2023-05-19T05:27:04;97830.88;;;11.95;88.99
49947;BME280;35839;48.662;13.300;2023-05-19T05:29:30;97827.56;;;11.93;90.15
49947;BME280;35839;48.662;13.300;2023-05-19T05:31:55;97822.47;;;12.10;90.43
49947;BME280;35839;48.662;13.300;2023-05-19T05:34:20;97824.31;;;12.27;91.31
49947;BME280;35839;48.662;13.300;2023-05-19T05:36:46;97821.50;;;11.93;92.67
49947;BME280;35839;48.662;13.300;2023-05-19T05:39:11;97824.56;;;11.88;93.88
49947;BME280;35839;48.662;13.300;2023-05-19T05:41:37;97815.66;;;11.99;94.90
49947;BME280;35839;48.662;13.300;2023-05-19T05:44:05;97821.38;;;12.12;95.58
49947;BME280;35839;48.662;13.300;2023-05-19T05:46:31;97823.50;;;12.27;97.12
49947;BME280;35839;48.662;13.300;2023-05-19T05:48:56;97823.63;;;12.43;98.00
49947;BME280;35839;48.662;13.300;2023-05-19T05:51:22;97827.31;;;12.50;98.61
49947;BME280;35839;48.662;13.300;2023-05-19T05:53:52;97827.63;;;12.47;100.00
49947;BME280;35839;48.662;13.300;2023-05-19T05:56:19;97820.78;;;12.36;100.00
49947;BME280;35839;48.662;13.300;2023-05-19T05:58:44;97829.94;;;12.50;100.00
49947;BME280;35839;48.662;13.300;2023-05-19T06:01:10;97820.97;;;12.79;100.00
49947;BME280;35839;48.662;13.300;2023-05-19T06:03:44;97821.94;;;12.78;100.00
49947;BME280;35839;48.662;13.300;2023-05-19T06:06:10;97814.09;;;12.86;100.00
49947;BME280;35839;48.662;13.300;2023-05-19T06:08:36;97820.94;;;12.97;100.00
49947;BME280;35839;48.662;13.300;2023-05-19T06:11:01;97810.09;;;13.00;100.00
49947;BME280;35839;48.662;13.300;2023-05-19T06:13:37;97808.25;;;12.92;100.00
49947;BME280;35839;48.662;13.300;2023-05-19T06:16:03;97822.88;;;12.95;100.00
49947;BME280;35839;48.662;13.300;2023-05-19T06:18:28;97817.06;;;13.09;100.00
49947;BME280;35839;48.662;13.300;2023-05-19T06:20:54;97820.09;;;12.96;100.00
49947;BME280;35839;48.662;13.300;2023-05-19T06:23:19;97813.19;;;12.95;100.00
49947;BME280;35839;48.662;13.300;2023-05-19T06:25:45;97812.69;;;13.26;100.00
49947;BME280;35839;48.662;13.300;2023-05-19T06:28:10;97817.38;;;13.32;100.00
49947;BME280;35839;48.662;13.300;2023-05-19T06:30:36;97816.09;;;13.36;100.00
49947;BME280;35839;48.662;13.300;2023-05-19T06:33:01;97811.78;;;13.61;99.80
49947;BME280;35839;48.662;13.300;2023-05-19T06:35:27;97811.63;;;13.71;98.92
49947;BME280;35839;48.662;13.300;2023-05-19T06:37:53;97809.63;;;13.65;99.24
49947;BME280;35839;48.662;13.300;2023-05-19T06:40:20;97811.66;;;13.79;99.40
49947;BME280;35839;48.662;13.300;2023-05-19T06:42:45;97813.97;;;13.82;97.29
49947;BME280;35839;48.662;13.300;2023-05-19T06:45:10;97812.88;;;14.01;99.43
49947;BME280;35839;48.662;13.300;2023-05-19T06:47:35;97800.50;;;13.85;98.03
49947;BME280;35839;48.662;13.300;2023-05-19T06:50:01;97810.63;;;13.72;97.26
49947;BME280;35839;48.662;13.300;2023-05-19T06:52:26;97802.78;;;13.80;97.54
49947;BME280;35839;48.662;13.300;2023-05-19T06:54:52;97805.75;;;13.94;97.17
49947;BME280;35839;48.662;13.300;2023-05-19T06:57:17;97812.41;;;13.63;96.04
49947;BME280;35839;48.662;13.300;2023-05-19T06:59:43;97809.50;;;13.75;96.68
49947;BME280;35839;48.662;13.300;2023-05-19T07:02:10;97814.78;;;13.83;98.37
49947;BME280;35839;48.662;13.300;2023-05-19T07:04:36;97808.72;;;13.82;94.72
49947;BME280;35839;48.662;13.300;2023-05-19T07:07:01;97809.44;;;14.09;93.87
49947;BME280;35839;48.662;13.300;2023-05-19T07:09:27;97804.66;;;14.21;95.94
49947;BME280;35839;48.662;13.300;2023-05-19T07:11:52;97808.47;;;14.43;95.73
49947;BME280;35839;48.662;13.300;2023-05-19T07:14:18;97804.53;;;14.47;92.97
49947;BME280;35839;48.662;13.300;2023-05-19T07:16:44;97807.31;;;14.53;91.50
49947;BME280;35839;48.662;13.300;2023-05-19T07:19:10;97800.91;;;14.48;92.80
49947;BME280;35839;48.662;13.300;2023-05-19T07:21:35;97801.25;;;14.69;91.21
49947;BME280;35839;48.662;13.300;2023-05-19T07:24:00;97797.78;;;14.85;90.10
49947;BME280;35839;48.662;13.300;2023-05-19T07:26:26;97793.34;;;14.69;93.57
49947;BME280;35839;48.662;13.300;2023-05-19T07:28:52;97795.50;;;14.74;90.26
49947;BME280;35839;48.662;13.300;2023-05-19T07:31:17;97802.59;;;14.73;89.87
49947;BME280;35839;48.662;13.300;2023-05-19T07:33:43;97793.34;;;14.78;88.75
49947;BME280;35839;48.662;13.300;2023-05-19T07:36:08;97797.97;;;14.92;89.22
49947;BME280;35839;48.662;13.300;2023-05-19T07:38:33;97798.28;;;14.89;86.83
49947;BME280;35839;48.662;13.300;2023-05-19T07:41:02;97793.69;;;14.83;86.07
49947;BME280;35839;48.662;13.300;2023-05-19T07:43:27;97790.84;;;15.01;86.70
49947;BME280;35839;48.662;13.300;2023-05-19T07:45:53;97793.25;;;15.27;84.40
49947;BME280;35839;48.662;13.300;2023-05-19T07:48:20;97792.19;;;15.44;86.48
49947;BME280;35839;48.662;13.300;2023-05-19T07:50:47;97793.78;;;15.22;87.20
49947;BME280;35839;48.662;13.300;2023-05-19T07:53:13;97788.50;;;15.22;87.84
49947;BME280;35839;48.662;13.300;2023-05-19T07:55:39;97784.66;;;15.33;88.42
49947;BME280;35839;48.662;13.300;2023-05-19T07:58:04;97776.00;;;15.47;86.41
49947;BME280;35839;48.662;13.300;2023-05-19T08:00:29;97781.09;;;15.09;89.02
49947;BME280;35839;48.662;13.300;2023-05-19T08:02:55;97791.53;;;14.94;86.88
49947;BME280;35839;48.662;13.300;2023-05-19T08:05:21;97778.09;;;15.12;89.44
49947;BME280;35839;48.662;13.300;2023-05-19T08:07:46;97784.34;;;15.20;87.63
49947;BME280;35839;48.662;13.300;2023-05-19T08:10:11;97779.38;;;15.33;86.36
49947;BME280;35839;48.662;13.300;2023-05-19T08:12:37;97780.00;;;15.43;86.78
49947;BME280;35839;48.662;13.300;2023-05-19T08:15:02;97782.44;;;15.53;87.29
49947;BME280;35839;48.662;13.300;2023-05-19T08:17:28;97780.41;;;15.63;85.95
49947;BME280;35839;48.662;13.300;2023-05-19T08:19:53;97782.38;;;15.69;85.86
49947;BME280;35839;48.662;13.300;2023-05-19T08:22:18;97779.06;;;15.67;87.66
49947;BME280;35839;48.662;13.300;2023-05-19T08:24:43;97779.84;;;15.84;83.16
49947;BME280;35839;48.662;13.300;2023-05-19T08:27:09;97773.81;;;15.98;84.85
49947;BME280;35839;48.662;13.300;2023-05-19T08:29:34;97768.53;;;15.98;85.52
49947;BME280;35839;48.662;13.300;2023-05-19T08:32:00;97775.81;;;16.42;78.78
49947;BME280;35839;48.662;13.300;2023-05-19T08:34:26;97770.53;;;16.42;83.43
49947;BME280;35839;48.662;13.300;2023-05-19T08:36:52;97764.59;;;16.40;85.22
49947;BME280;35839;48.662;13.300;2023-05-19T08:39:17;97762.47;;;16.36;82.39
49947;BME280;35839;48.662;13.300;2023-05-19T08:41:48;97758.50;;;16.17;84.52
49947;BME280;35839;48.662;13.300;2023-05-19T08:44:13;97755.19;;;16.38;82.91
49947;BME280;35839;48.662;13.300;2023-05-19T08:46:39;97745.75;;;16.43;79.91
49947;BME280;35839;48.662;13.300;2023-05-19T08:49:10;97755.53;;;16.58;78.41
49947;BME280;35839;48.662;13.300;2023-05-19T08:51:51;97761.66;;;16.73;82.51
49947;BME280;35839;48.662;13.300;2023-05-19T08:54:23;97752.50;;;16.46;82.14
49947;BME280;35839;48.662;13.300;2023-05-19T08:56:49;97754.34;;;16.22;83.24
49947;BME280;35839;48.662;13.300;2023-05-19T08:59:16;97749.38;;;16.42;82.04
49947;BME280;35839;48.662;13.300;2023-05-19T09:01:43;97748.91;;;16.62;79.43
49947;BME280;35839;48.662;13.300;2023-05-19T09:04:10;97752.34;;;17.00;79.84
49947;BME280;35839;48.662;13.300;2023-05-19T09:06:35;97746.50;;;17.05;78.57
49947;BME280;35839;48.662;13.300;2023-05-19T09:09:01;97741.09;;;17.13;73.98
49947;BME280;35839;48.662;13.300;2023-05-19T09:11:28;97741.91;;;17.43;79.67
49947;BME280;35839;48.662;13.300;2023-05-19T09:13:53;97734.88;;;17.36;71.85
49947;BME280;35839;48.662;13.300;2023-05-19T09:16:18;97728.44;;;17.60;78.98
49947;BME280;35839;48.662;13.300;2023-05-19T09:18:54;97729.09;;;18.41;75.91
49947;BME280;35839;48.662;13.300;2023-05-19T09:21:26;97728.09;;;18.70;71.52
49947;BME280;35839;48.662;13.300;2023-05-19T09:23:55;97726.38;;;18.56;71.65
49947;BME280;35839;48.662;13.300;2023-05-19T09:26:21;97729.00;;;18.28;75.50
49947;BME280;35839;48.662;13.300;2023-05-19T09:28:47;97734.72;;;17.88;76.27
49947;BME280;35839;48.662;13.300;2023-05-19T09:31:12;97731.41;;;18.23;72.52
49947;BME280;35839;48.662;13.300;2023-05-19T09:33:39;97730.44;;;17.73;72.96
49947;BME280;35839;48.662;13.300;2023-05-19T09:36:06;97724.72;;;18.55;73.41
49947;BME280;35839;48.662;13.300;2023-05-19T09:38:36;97722.34;;;18.95;72.35
49947;BME280;35839;48.662;13.300;2023-05-19T09:41:02;97719.00;;;18.51;73.21
49947;BME280;35839;48.662;13.300;2023-05-19T09:43:28;97713.94;;;18.85;68.84
49947;BME280;35839;48.662;13.300;2023-05-19T09:46:08;97708.41;;;19.14;69.24
49947;BME280;35839;48.662;13.300;2023-05-19T09:48:34;97712.50;;;19.17;69.71
49947;BME280;35839;48.662;13.300;2023-05-19T09:51:01;97708.94;;;19.45;69.00
49947;BME280;35839;48.662;13.300;2023-05-19T09:53:28;97705.47;;;19.44;70.52
49947;BME280;35839;48.662;13.300;2023-05-19T09:55:55;97713.06;;;19.54;66.98
49947;BME280;35839;48.662;13.300;2023-05-19T09:58:24;97707.19;;;19.72;66.54
49947;BME280;35839;48.662;13.300;2023-05-19T10:00:50;97699.31;;;20.05;65.55
49947;BME280;35839;48.662;13.300;2023-05-19T10:03:19;97696.84;;;19.97;63.75
49947;BME280;35839;48.662;13.300;2023-05-19T10:05:46;97686.59;;;19.81;64.15
49947;BME280;35839;48.662;13.300;2023-05-19T10:08:12;97692.78;;;20.08;65.53
49947;BME280;35839;48.662;13.300;2023-05-19T10:10:38;97686.63;;;20.00;67.44
49947;BME280;35839;48.662;13.300;2023-05-19T10:13:04;97694.41;;;19.95;67.26
49947;BME280;35839;48.662;13.300;2023-05-19T10:15:30;97684.50;;;19.69;66.11
49947;BME280;35839;48.662;13.300;2023-05-19T10:17:56;97674.72;;;19.76;67.58
49947;BME280;35839;48.662;13.300;2023-05-19T10:20:25;97678.00;;;19.78;61.18
49947;BME280;35839;48.662;13.300;2023-05-19T10:22:51;97679.22;;;19.76;66.16
49947;BME280;35839;48.662;13.300;2023-05-19T10:25:16;97680.50;;;19.93;61.40
49947;BME280;35839;48.662;13.300;2023-05-19T10:27:52;97673.59;;;19.51;64.45
49947;BME280;35839;48.662;13.300;2023-05-19T10:30:25;97679.09;;;19.43;69.07
49947;BME280;35839;48.662;13.300;2023-05-19T10:32:52;97668.06;;;19.46;65.37
49947;BME280;35839;48.662;13.300;2023-05-19T10:36:24;97669.84;;;19.87;66.18
49947;BME280;35839;48.662;13.300;2023-05-19T10:38:47;97663.72;;;20.06;65.55
49947;BME280;35839;48.662;13.300;2023-05-19T10:41:27;97660.38;;;19.64;69.30
49947;BME280;35839;48.662;13.300;2023-05-19T10:44:16;97658.81;;;19.90;65.02
49947;BME280;35839;48.662;13.300;2023-05-19T10:46:45;97660.88;;;20.41;67.20
49947;BME280;35839;48.662;13.300;2023-05-19T10:49:19;97656.97;;;20.37;65.08
49947;BME280;35839;48.662;13.300;2023-05-19T10:51:44;97663.75;;;20.59;64.70
49947;BME280;35839;48.662;13.300;2023-05-19T10:54:09;97654.88;;;21.44;63.18
49947;BME280;35839;48.662;13.300;2023-05-19T10:56:38;97655.28;;;20.89;60.35
49947;BME280;35839;48.662;13.300;2023-05-19T10:59:06;97653.50;;;20.36;61.66
49947;BME280;35839;48.662;13.300;2023-05-19T11:01:32;97656.38;;;20.08;62.80
49947;BME280;35839;48.662;13.300;2023-05-19T11:04:06;97656.56;;;19.80;66.88
49947;BME280;35839;48.662;13.300;2023-05-19T11:06:33;97658.59;;;19.78;65.85
49947;BME280;35839;48.662;13.300;2023-05-19T11:09:13;97649.44;;;20.07;64.05
49947;BME280;35839;48.662;13.300;2023-05-19T11:11:52;97649.00;;;20.37;60.82
49947;BME280;35839;48.662;13.300;2023-05-19T11:14:20;97640.78;;;20.65;59.11
49947;BME280;35839;48.662;13.300;2023-05-19T11:16:48;97643.84;;;21.34;62.94
49947;BME280;35839;48.662;13.300;2023-05-19T11:21:49;97632.50;;;21.83;59.78
49947;BME280;35839;48.662;13.300;2023-05-19T11:24:46;97638.25;;;21.49;54.23
49947;BME280;35839;48.662;13.300;2023-05-19T11:27:28;97642.06;;;20.23;59.64
49947;BME280;35839;48.662;13.300;2023-05-19T11:30:07;97634.25;;;21.71;58.02
49947;BME280;35839;48.662;13.300;2023-05-19T11:32:35;97634.50;;;21.95;57.74
49947;BME280;35839;48.662;13.300;2023-05-19T11:35:03;97637.69;;;22.54;59.27
49947;BME280;35839;48.662;13.300;2023-05-19T11:37:32;97634.09;;;22.23;56.73
49947;BME280;35839;48.662;13.300;2023-05-19T11:40:00;97629.66;;;21.46;58.86
49947;BME280;35839;48.662;13.300;2023-05-19T11:42:26;97623.03;;;21.17;56.18
49947;BME280;35839;48.662;13.300;2023-05-19T11:44:55;97625.94;;;21.02;58.37
49947;BME280;35839;48.662;13.300;2023-05-19T11:47:20;97623.84;;;21.18;59.68
49947;BME280;35839;48.662;13.300;2023-05-19T11:49:50;97624.56;;;20.93;58.47
49947;BME280;35839;48.662;13.300;2023-05-19T11:52:16;97626.75;;;21.10;59.05
49947;BME280;35839;48.662;13.300;2023-05-19T11:54:41;97623.56;;;21.33;56.37
49947;BME280;35839;48.662;13.300;2023-05-19T11:57:09;97627.50;;;21.23;57.55
49947;BME280;35839;48.662;13.300;2023-05-19T11:59:36;97626.19;;;21.39;59.10
49947;BME280;35839;48.662;13.300;2023-05-19T12:02:15;97628.81;;;21.53;59.88
49947;BME280;35839;48.662;13.300;2023-05-19T12:04:41;97623.81;;;21.63;59.88
49947;BME280;35839;48.662;13.300;2023-05-19T12:07:06;97621.22;;;22.13;57.48
49947;BME280;35839;48.662;13.300;2023-05-19T12:09:32;97623.56;;;22.28;57.71
49947;BME280;35839;48.662;13.300;2023-05-19T12:11:57;97621.78;;;22.65;52.62
49947;BME280;35839;48.662;13.300;2023-05-19T12:14:25;97616.13;;;22.37;56.92
49947;BME280;35839;48.662;13.300;2023-05-19T12:16:50;97614.69;;;22.09;53.84
49947;BME280;35839;48.662;13.300;2023-05-19T12:19:15;97619.94;;;21.65;57.12
49947;BME280;35839;48.662;13.300;2023-05-19T12:21:41;97618.41;;;22.08;58.63
49947;BME280;35839;48.662;13.300;2023-05-19T12:24:07;97621.38;;;21.93;55.61
49947;BME280;35839;48.662;13.300;2023-05-19T12:26:34;97621.03;;;21.83;57.88
49947;BME280;35839;48.662;13.300;2023-05-19T12:29:00;97617.25;;;20.82;57.10
49947;BME280;35839;48.662;13.300;2023-05-19T12:31:25;97614.59;;;20.75;61.46
49947;BME280;35839;48.662;13.300;2023-05-19T12:33:50;97619.81;;;21.02;64.09
49947;BME280;35839;48.662;13.300;2023-05-19T12:36:16;97610.03;;;20.96;60.17
49947;BME280;35839;48.662;13.300;2023-05-19T12:38:42;97619.88;;;20.89;61.15
49947;BME280;35839;48.662;13.300;2023-05-19T12:41:10;97617.47;;;20.60;63.10
49947;BME280;35839;48.662;13.300;2023-05-19T12:43:36;97613.38;;;20.65;63.79
49947;BME280;35839;48.662;13.300;2023-05-19T12:46:11;97609.91;;;20.51;62.86
49947;BME280;35839;48.662;13.300;2023-05-19T12:48:43;97611.16;;;20.61;62.68
49947;BME280;35839;48.662;13.300;2023-05-19T12:51:10;97606.75;;;21.32;62.32
49947;BME280;35839;48.662;13.300;2023-05-19T12:53:40;97608.59;;;21.45;60.89
49947;BME280;35839;48.662;13.300;2023-05-19T12:56:10;97607.41;;;21.27;62.14
49947;BME280;35839;48.662;13.300;2023-05-19T12:58:37;97607.84;;;21.24;62.29
49947;BME280;35839;48.662;13.300;2023-05-19T13:01:03;97604.94;;;20.81;62.70
49947;BME280;35839;48.662;13.300;2023-05-19T13:03:28;97600.03;;;20.78;63.90
49947;BME280;35839;48.662;13.300;2023-05-19T13:05:54;97594.00;;;21.02;63.29
49947;BME280;35839;48.662;13.300;2023-05-19T13:08:20;97589.50;;;21.10;60.92
49947;BME280;35839;48.662;13.300;2023-05-19T13:10:48;97584.81;;;21.05;62.11
49947;BME280;35839;48.662;13.300;2023-05-19T13:13:13;97602.47;;;20.86;62.57
49947;BME280;35839;48.662;13.300;2023-05-19T13:15:42;97592.25;;;20.83;62.90
49947;BME280;35839;48.662;13.300;2023-05-19T13:18:09;97593.16;;;21.09;64.36
49947;BME280;35839;48.662;13.300;2023-05-19T13:20:36;97589.50;;;21.03;61.94
49947;BME280;35839;48.662;13.300;2023-05-19T13:23:02;97579.53;;;21.30;64.71
49947;BME280;35839;48.662;13.300;2023-05-19T13:25:27;97577.34;;;22.34;63.35
49947;BME280;35839;48.662;13.300;2023-05-19T13:27:53;97577.59;;;23.06;61.52
49947;BME280;35839;48.662;13.300;2023-05-19T13:30:19;97576.63;;;22.82;57.31
49947;BME280;35839;48.662;13.300;2023-05-19T13:32:46;97578.31;;;22.95;60.75
49947;BME280;35839;48.662;13.300;2023-05-19T13:35:12;97576.34;;;21.85;59.53
49947;BME280;35839;48.662;13.300;2023-05-19T13:37:40;97577.97;;;22.73;55.64
49947;BME280;35839;48.662;13.300;2023-05-19T13:40:05;97580.25;;;22.69;56.57
49947;BME280;35839;48.662;13.300;2023-05-19T13:42:31;97576.19;;;22.85;56.91
49947;BME280;35839;48.662;13.300;2023-05-19T13:44:57;97571.19;;;22.89;55.25
49947;BME280;35839;48.662;13.300;2023-05-19T13:47:23;97561.94;;;22.36;57.17
49947;BME280;35839;48.662;13.300;2023-05-19T13:49:48;97567.19;;;22.98;56.11
49947;BME280;35839;48.662;13.300;2023-05-19T13:52:14;97555.22;;;22.52;56.72
49947;BME280;35839;48.662;13.300;2023-05-19T13:54:39;97550.00;;;22.94;57.00
49947;BME280;35839;48.662;13.300;2023-05-19T13:57:05;97556.50;;;23.17;58.13
49947;BME280;35839;48.662;13.300;2023-05-19T13:59:30;97557.06;;;23.91;55.55
49947;BME280;35839;48.662;13.300;2023-05-19T14:01:55;97547.41;;;23.78;54.05
49947;BME280;35839;48.662;13.300;2023-05-19T14:04:21;97552.88;;;23.83;52.89
49947;BME280;35839;48.662;13.300;2023-05-19T14:06:47;97554.91;;;23.69;52.67
49947;BME280;35839;48.662;13.300;2023-05-19T14:09:14;97550.88;;;23.06;53.97
49947;BME280;35839;48.662;13.300;2023-05-19T14:11:40;97548.94;;;22.95;55.15
49947;BME280;35839;48.662;13.300;2023-05-19T14:14:05;97551.06;;;22.56;57.25
49947;BME280;35839;48.662;13.300;2023-05-19T14:16:31;97541.41;;;23.10;55.30
49947;BME280;35839;48.662;13.300;2023-05-19T14:18:57;97535.66;;;24.03;56.79
49947;BME280;35839;48.662;13.300;2023-05-19T14:21:22;97538.88;;;24.64;50.81
49947;BME280;35839;48.662;13.300;2023-05-19T14:23:47;97538.47;;;24.31;53.37
49947;BME280;35839;48.662;13.300;2023-05-19T14:26:13;97546.84;;;24.00;53.27
49947;BME280;35839;48.662;13.300;2023-05-19T14:28:38;97553.13;;;24.52;51.42
49947;BME280;35839;48.662;13.300;2023-05-19T14:31:03;97550.88;;;24.61;50.81
49947;BME280;35839;48.662;13.300;2023-05-19T14:33:30;97547.69;;;25.45;49.27
49947;BME280;35839;48.662;13.300;2023-05-19T14:35:55;97547.16;;;25.77;48.06
49947;BME280;35839;48.662;13.300;2023-05-19T14:38:24;97536.94;;;25.91;46.13
49947;BME280;35839;48.662;13.300;2023-05-19T14:40:49;97531.81;;;24.98;47.24
49947;BME280;35839;48.662;13.300;2023-05-19T14:43:15;97534.63;;;25.32;48.57
49947;BME280;35839;48.662;13.300;2023-05-19T14:45:40;97533.06;;;25.07;48.88
49947;BME280;35839;48.662;13.300;2023-05-19T14:48:08;97537.66;;;24.95;48.82
49947;BME280;35839;48.662;13.300;2023-05-19T14:50:36;97532.66;;;24.87;48.65
49947;BME280;35839;48.662;13.300;2023-05-19T14:53:01;97532.28;;;24.54;49.03
49947;BME280;35839;48.662;13.300;2023-05-19T14:55:26;97539.03;;;24.33;50.62
49947;BME280;35839;48.662;13.300;2023-05-19T14:57:52;97535.78;;;24.95;51.28
49947;BME280;35839;48.662;13.300;2023-05-19T15:00:17;97538.63;;;25.46;49.09
49947;BME280;35839;48.662;13.300;2023-05-19T15:02:43;97532.31;;;25.23;48.68
49947;BME280;35839;48.662;13.300;2023-05-19T15:05:08;97529.94;;;24.98;48.46
49947;BME280;35839;48.662;13.300;2023-05-19T15:07:33;97541.38;;;24.30;50.08
49947;BME280;35839;48.662;13.300;2023-05-19T15:09:59;97542.31;;;24.12;51.88
49947;BME280;35839;48.662;13.300;2023-05-19T15:12:25;97539.84;;;23.98;50.57
49947;BME280;35839;48.662;13.300;2023-05-19T15:14:51;97536.16;;;24.00;52.63
49947;BME280;35839;48.662;13.300;2023-05-19T15:17:16;97545.69;;;23.53;52.91
49947;BME280;35839;48.662;13.300;2023-05-19T15:19:41;97545.19;;;23.75;54.51
49947;BME280;35839;48.662;13.300;2023-05-19T15:22:07;97540.06;;;23.01;55.09
49947;BME280;35839;48.662;13.300;2023-05-19T15:24:33;97539.28;;;22.45;57.47
49947;BME280;35839;48.662;13.300;2023-05-19T15:26:58;97541.09;;;22.63;56.96
49947;BME280;35839;48.662;13.300;2023-05-19T15:29:23;97534.69;;;22.34;55.75
49947;BME280;35839;48.662;13.300;2023-05-19T15:31:52;97535.00;;;22.19;56.05
49947;BME280;35839;48.662;13.300;2023-05-19T15:34:18;97542.50;;;21.85;57.91
49947;BME280;35839;48.662;13.300;2023-05-19T15:36:43;97533.09;;;21.83;57.75
49947;BME280;35839;48.662;13.300;2023-05-19T15:39:08;97540.66;;;21.61;58.34
49947;BME280;35839;48.662;13.300;2023-05-19T15:41:35;97540.47;;;21.24;61.17
49947;BME280;35839;48.662;13.300;2023-05-19T15:44:00;97543.72;;;21.26;62.34
49947;BME280;35839;48.662;13.300;2023-05-19T15:46:27;97542.41;;;21.03;62.20
49947;BME280;35839;48.662;13.300;2023-05-19T15:48:52;97547.09;;;20.63;63.18
49947;BME280;35839;48.662;13.300;2023-05-19T15:51:17;97546.09;;;21.02;64.22
49947;BME280;35839;48.662;13.300;2023-05-19T15:53:42;97546.53;;;20.99;63.73
49947;BME280;35839;48.662;13.300;2023-05-19T15:56:08;97541.50;;;20.78;65.59
49947;BME280;35839;48.662;13.300;2023-05-19T15:58:33;97553.59;;;20.74;64.78
49947;BME280;35839;48.662;13.300;2023-05-19T16:00:58;97541.44;;;20.19;65.67
49947;BME280;35839;48.662;13.300;2023-05-19T16:03:24;97548.44;;;19.94;65.72
49947;BME280;35839;48.662;13.300;2023-05-19T16:05:49;97548.44;;;19.81;66.70
49947;BME280;35839;48.662;13.300;2023-05-19T16:08:15;97550.06;;;19.82;66.35
49947;BME280;35839;48.662;13.300;2023-05-19T16:10:40;97547.59;;;19.73;66.78
49947;BME280;35839;48.662;13.300;2023-05-19T16:13:05;97556.81;;;19.91;66.86
49947;BME280;35839;48.662;13.300;2023-05-19T16:15:31;97556.19;;;19.89;67.34
49947;BME280;35839;48.662;13.300;2023-05-19T16:17:56;97560.09;;;19.79;68.39
49947;BME280;35839;48.662;13.300;2023-05-19T16:20:21;97565.59;;;19.91;67.13
49947;BME280;35839;48.662;13.300;2023-05-19T16:22:50;97556.13;;;19.35;68.72
49947;BME280;35839;48.662;13.300;2023-05-19T16:25:16;97557.75;;;19.36;69.48
49947;BME280;35839;48.662;13.300;2023-05-19T16:27:41;97550.19;;;19.33;70.01
49947;BME280;35839;48.662;13.300;2023-05-19T16:30:07;97548.75;;;19.24;71.23
49947;BME280;35839;48.662;13.300;2023-05-19T16:32:32;97549.16;;;19.21;71.11
49947;BME280;35839;48.662;13.300;2023-05-19T16:34:58;97539.53;;;19.13;71.31
49947;BME280;35839;48.662;13.300;2023-05-19T16:37:23;97536.09;;;19.46;68.71
49947;BME280;35839;48.662;13.300;2023-05-19T16:39:48;97538.13;;;19.17;69.89
49947;BME280;35839;48.662;13.300;2023-05-19T16:42:13;97534.22;;;19.07;70.60
49947;BME280;35839;48.662;13.300;2023-05-19T16:44:39;97543.84;;;19.21;70.57
49947;BME280;35839;48.662;13.300;2023-05-19T16:47:04;97533.63;;;19.18;70.18
49947;BME280;35839;48.662;13.300;2023-05-19T16:49:29;97531.63;;;19.33;71.06
49947;BME280;35839;48.662;13.300;2023-05-19T16:51:55;97535.44;;;18.98;71.30
49947;BME280;35839;48.662;13.300;2023-05-19T16:54:20;97532.22;;;18.67;72.44
49947;BME280;35839;48.662;13.300;2023-05-19T16:56:48;97523.72;;;18.85;72.42
49947;BME280;35839;48.662;13.300;2023-05-19T16:59:13;97517.22;;;18.88;73.28
49947;BME280;35839;48.662;13.300;2023-05-19T17:01:39;97521.63;;;18.74;72.69
49947;BME280;35839;48.662;13.300;2023-05-19T17:04:04;97518.97;;;18.74;72.32
49947;BME280;35839;48.662;13.300;2023-05-19T17:06:29;97521.50;;;18.47;74.09
49947;BME280;35839;48.662;13.300;2023-05-19T17:08:55;97522.28;;;18.41;74.23
49947;BME280;35839;48.662;13.300;2023-05-19T17:11:20;97518.56;;;18.29;74.58
49947;BME280;35839;48.662;13.300;2023-05-19T17:13:45;97517.72;;;18.22;74.25
49947;BME280;35839;48.662;13.300;2023-05-19T17:16:11;97518.78;;;18.34;74.95
49947;BME280;35839;48.662;13.300;2023-05-19T17:18:36;97515.19;;;18.48;73.82
49947;BME280;35839;48.662;13.300;2023-05-19T17:21:01;97520.31;;;18.50;76.11
49947;BME280;35839;48.662;13.300;2023-05-19T17:23:28;97526.41;;;18.50;74.50
49947;BME280;35839;48.662;13.300;2023-05-19T17:25:54;97517.63;;;18.43;74.97
49947;BME280;35839;48.662;13.300;2023-05-19T17:28:20;97523.63;;;18.59;74.20
49947;BME280;35839;48.662;13.300;2023-05-19T17:30:45;97526.38;;;18.37;74.79
49947;BME280;35839;48.662;13.300;2023-05-19T17:33:10;97529.16;;;18.29;75.28
49947;BME280;35839;48.662;13.300;2023-05-19T17:35:37;97530.66;;;18.03;76.17
49947;BME280;35839;48.662;13.300;2023-05-19T17:38:02;97525.38;;;18.10;76.95
49947;BME280;35839;48.662;13.300;2023-05-19T17:40:29;97528.31;;;18.22;76.67
49947;BME280;35839;48.662;13.300;2023-05-19T17:42:55;97535.41;;;18.15;77.88
49947;BME280;35839;48.662;13.300;2023-05-19T17:45:20;97534.41;;;17.87;78.38
49947;BME280;35839;48.662;13.300;2023-05-19T17:47:45;97523.63;;;17.89;78.61
49947;BME280;35839;48.662;13.300;2023-05-19T17:50:10;97526.50;;;17.94;78.89
49947;BME280;35839;48.662;13.300;2023-05-19T17:52:37;97529.34;;;17.71;80.42
49947;BME280;35839;48.662;13.300;2023-05-19T17:55:03;97525.13;;;17.77;80.44